Accueil
METAR-TAF:

METAR-TAF

Aéroports :

Base aérienne de Kleine-Brogel

Peer, Belgique

latitude: 51-10N, longitude: 005-28E, altitude: 55 m

Observation

Le bulletin a été fait il y a 32 minutes, à 11:55 UTC
Vent 6 kt de ouest/sud-ouest
Température 24°C
Humidité 36%
Pression 1018 hPa
Visibilité 10 km ou plus
Nuages épars à une hauteur de 6200 ft

METAR: EBBL 181155Z 25006KT 9999 SCT062 24/08 Q1018 BLU BLU

Heure: 14:27 (12:27 UTC)

Prévision

Le bulletin a été fait il y a 3 heures et 46 minutes, à 08:41 UTC
Prévision valable du 18 à 10 UTC au 18 à 19 UTC
Vent 2 kt de direction variable
Visibilité 10 km ou plus
Nuages épars à une hauteur de 30000 ft
Temporairement
du 18 à 11 UTC au 18 à 13 UTC
Vent 5 kt de ouest/sud-ouest
Visibilité 10 km ou plus
Quelques nuages à une hauteur de 5000 ft
Nuages épars à une hauteur de 30000 ft

TAF: EBBL 180841Z 1810/1819 VRB02KT 9999 SCT300 TEMPO 1811/1813 24005KT 9999 FEW050 SCT300

Observations et prévisions météorologiques de plus de 4000 aéroports (messages METAR et TAF).

Les stations disponibles sont représentées par des disques jaunes et rouges sur la carte.

Passer la souris dessus pour voir le nom de la station.

Cliquer dessus pour voir les observations et prévisions météorologiques.

Pour changer de carte: cliquez sur les boutons verts avec une croix noire pour zoomer, sur le bouton vert avec un tiret pour effectuer un zoom arrière, ou sur les flèches vertes pour les cartes adjacentes.


METAR-TAF: